sensor_id;sensor_type;location;lat;lon;timestamp;P1;durP1;ratioP1;P2;durP2;ratioP2
3698;SDS011;1865;50.918;7.092;2022-10-16T00:00:42;11.00;;;2.40;;
3698;SDS011;1865;50.918;7.092;2022-10-16T00:03:08;7.10;;;2.67;;
3698;SDS011;1865;50.918;7.092;2022-10-16T00:05:41;10.80;;;2.70;;
3698;SDS011;1865;50.918;7.092;2022-10-16T00:08:08;6.43;;;2.60;;
3698;SDS011;1865;50.918;7.092;2022-10-16T00:10:35;9.60;;;2.47;;
3698;SDS011;1865;50.918;7.092;2022-10-16T00:13:01;8.70;;;2.50;;
3698;SDS011;1865;50.918;7.092;2022-10-16T00:15:27;8.27;;;2.00;;
3698;SDS011;1865;50.918;7.092;2022-10-16T00:17:53;5.83;;;1.73;;
3698;SDS011;1865;50.918;7.092;2022-10-16T00:20:18;7.93;;;1.90;;
3698;SDS011;1865;50.918;7.092;2022-10-16T00:22:44;5.90;;;1.60;;
3698;SDS011;1865;50.918;7.092;2022-10-16T00:25:09;12.40;;;2.07;;
3698;SDS011;1865;50.918;7.092;2022-10-16T00:27:35;8.67;;;2.47;;
3698;SDS011;1865;50.918;7.092;2022-10-16T00:30:00;7.37;;;1.93;;
3698;SDS011;1865;50.918;7.092;2022-10-16T00:32:26;7.90;;;1.90;;
3698;SDS011;1865;50.918;7.092;2022-10-16T00:34:52;6.77;;;1.70;;
3698;SDS011;1865;50.918;7.092;2022-10-16T00:37:19;6.17;;;2.00;;
3698;SDS011;1865;50.918;7.092;2022-10-16T00:39:45;7.00;;;1.73;;
3698;SDS011;1865;50.918;7.092;2022-10-16T00:42:14;10.33;;;1.83;;
3698;SDS011;1865;50.918;7.092;2022-10-16T00:44:43;6.63;;;1.67;;
3698;SDS011;1865;50.918;7.092;2022-10-16T00:47:26;4.97;;;1.63;;
3698;SDS011;1865;50.918;7.092;2022-10-16T00:49:59;6.00;;;1.50;;
3698;SDS011;1865;50.918;7.092;2022-10-16T00:52:45;8.97;;;1.90;;
3698;SDS011;1865;50.918;7.092;2022-10-16T00:55:12;5.10;;;1.53;;
3698;SDS011;1865;50.918;7.092;2022-10-16T00:57:38;8.50;;;1.50;;
3698;SDS011;1865;50.918;7.092;2022-10-16T01:00:06;7.37;;;1.60;;
3698;SDS011;1865;50.918;7.092;2022-10-16T01:02:34;8.50;;;2.00;;
3698;SDS011;1865;50.918;7.092;2022-10-16T01:04:59;9.03;;;1.40;;
3698;SDS011;1865;50.918;7.092;2022-10-16T01:07:31;6.23;;;1.27;;
3698;SDS011;1865;50.918;7.092;2022-10-16T01:15:27;5.20;;;1.47;;
3698;SDS011;1865;50.918;7.092;2022-10-16T01:18:03;5.87;;;1.60;;
3698;SDS011;1865;50.918;7.092;2022-10-16T01:20:44;4.60;;;1.50;;
3698;SDS011;1865;50.918;7.092;2022-10-16T01:29:08;6.73;;;1.23;;
3698;SDS011;1865;50.918;7.092;2022-10-16T01:31:40;5.10;;;1.60;;
3698;SDS011;1865;50.918;7.092;2022-10-16T01:34:11;8.90;;;1.70;;
3698;SDS011;1865;50.918;7.092;2022-10-16T01:36:43;6.90;;;1.27;;
3698;SDS011;1865;50.918;7.092;2022-10-16T01:39:14;6.50;;;1.70;;
3698;SDS011;1865;50.918;7.092;2022-10-16T01:41:44;4.50;;;1.43;;
3698;SDS011;1865;50.918;7.092;2022-10-16T01:44:14;8.90;;;1.93;;
3698;SDS011;1865;50.918;7.092;2022-10-16T01:46:46;6.67;;;1.40;;
3698;SDS011;1865;50.918;7.092;2022-10-16T01:49:15;8.60;;;1.60;;
3698;SDS011;1865;50.918;7.092;2022-10-16T01:51:43;9.80;;;2.00;;
3698;SDS011;1865;50.918;7.092;2022-10-16T01:54:12;7.87;;;1.83;;
3698;SDS011;1865;50.918;7.092;2022-10-16T01:56:41;10.23;;;1.50;;
3698;SDS011;1865;50.918;7.092;2022-10-16T01:59:15;7.43;;;1.50;;
3698;SDS011;1865;50.918;7.092;2022-10-16T02:01:44;5.17;;;1.40;;
3698;SDS011;1865;50.918;7.092;2022-10-16T02:04:19;8.50;;;1.90;;
3698;SDS011;1865;50.918;7.092;2022-10-16T02:07:03;8.60;;;2.30;;
3698;SDS011;1865;50.918;7.092;2022-10-16T02:09:29;9.23;;;1.70;;
3698;SDS011;1865;50.918;7.092;2022-10-16T02:11:57;5.40;;;1.60;;
3698;SDS011;1865;50.918;7.092;2022-10-16T02:14:27;5.37;;;2.00;;
3698;SDS011;1865;50.918;7.092;2022-10-16T02:16:53;8.70;;;1.90;;
3698;SDS011;1865;50.918;7.092;2022-10-16T02:19:19;6.00;;;1.70;;
3698;SDS011;1865;50.918;7.092;2022-10-16T02:24:51;8.03;;;2.33;;
3698;SDS011;1865;50.918;7.092;2022-10-16T02:30:02;9.47;;;2.00;;
3698;SDS011;1865;50.918;7.092;2022-10-16T02:32:47;6.30;;;1.90;;
3698;SDS011;1865;50.918;7.092;2022-10-16T02:35:15;6.47;;;1.60;;
3698;SDS011;1865;50.918;7.092;2022-10-16T02:37:43;5.60;;;1.73;;
3698;SDS011;1865;50.918;7.092;2022-10-16T02:40:10;6.27;;;2.30;;
3698;SDS011;1865;50.918;7.092;2022-10-16T02:42:38;7.57;;;1.53;;
3698;SDS011;1865;50.918;7.092;2022-10-16T02:45:05;10.87;;;2.00;;
3698;SDS011;1865;50.918;7.092;2022-10-16T02:47:32;8.80;;;1.60;;
3698;SDS011;1865;50.918;7.092;2022-10-16T02:49:58;19.63;;;1.87;;
3698;SDS011;1865;50.918;7.092;2022-10-16T02:52:24;7.50;;;2.10;;
3698;SDS011;1865;50.918;7.092;2022-10-16T02:54:49;6.23;;;2.20;;
3698;SDS011;1865;50.918;7.092;2022-10-16T02:57:15;8.53;;;1.77;;
3698;SDS011;1865;50.918;7.092;2022-10-16T02:59:41;7.17;;;2.40;;
3698;SDS011;1865;50.918;7.092;2022-10-16T03:02:06;7.50;;;1.60;;
3698;SDS011;1865;50.918;7.092;2022-10-16T03:04:32;6.53;;;2.00;;
3698;SDS011;1865;50.918;7.092;2022-10-16T03:06:57;8.47;;;1.67;;
3698;SDS011;1865;50.918;7.092;2022-10-16T03:09:23;8.10;;;1.73;;
3698;SDS011;1865;50.918;7.092;2022-10-16T03:11:48;7.30;;;1.60;;
3698;SDS011;1865;50.918;7.092;2022-10-16T03:14:14;6.37;;;1.40;;
3698;SDS011;1865;50.918;7.092;2022-10-16T03:16:39;7.47;;;2.07;;
3698;SDS011;1865;50.918;7.092;2022-10-16T03:19:05;6.73;;;1.70;;
3698;SDS011;1865;50.918;7.092;2022-10-16T03:21:30;10.63;;;2.00;;
3698;SDS011;1865;50.918;7.092;2022-10-16T03:23:56;12.00;;;2.90;;
3698;SDS011;1865;50.918;7.092;2022-10-16T03:26:21;6.43;;;1.83;;
3698;SDS011;1865;50.918;7.092;2022-10-16T03:28:47;10.23;;;1.80;;
3698;SDS011;1865;50.918;7.092;2022-10-16T03:31:12;5.30;;;1.67;;
3698;SDS011;1865;50.918;7.092;2022-10-16T03:33:38;5.20;;;1.53;;
3698;SDS011;1865;50.918;7.092;2022-10-16T03:36:03;4.70;;;1.57;;
3698;SDS011;1865;50.918;7.092;2022-10-16T03:38:29;13.83;;;1.70;;
3698;SDS011;1865;50.918;7.092;2022-10-16T03:40:54;14.00;;;2.13;;
3698;SDS011;1865;50.918;7.092;2022-10-16T03:43:20;12.63;;;1.77;;
3698;SDS011;1865;50.918;7.092;2022-10-16T03:45:45;6.07;;;1.57;;
3698;SDS011;1865;50.918;7.092;2022-10-16T03:48:11;5.60;;;1.50;;
3698;SDS011;1865;50.918;7.092;2022-10-16T03:50:36;9.13;;;1.97;;
3698;SDS011;1865;50.918;7.092;2022-10-16T03:53:02;7.00;;;1.43;;
3698;SDS011;1865;50.918;7.092;2022-10-16T03:55:28;9.10;;;1.47;;
3698;SDS011;1865;50.918;7.092;2022-10-16T03:57:53;5.13;;;1.77;;
3698;SDS011;1865;50.918;7.092;2022-10-16T04:00:19;5.97;;;1.70;;
3698;SDS011;1865;50.918;7.092;2022-10-16T04:02:44;7.33;;;2.20;;
3698;SDS011;1865;50.918;7.092;2022-10-16T04:05:10;6.20;;;1.50;;
3698;SDS011;1865;50.918;7.092;2022-10-16T04:07:35;5.30;;;1.60;;
3698;SDS011;1865;50.918;7.092;2022-10-16T04:10:01;9.70;;;1.50;;
3698;SDS011;1865;50.918;7.092;2022-10-16T04:12:27;5.77;;;1.70;;
3698;SDS011;1865;50.918;7.092;2022-10-16T04:14:52;4.73;;;1.50;;
3698;SDS011;1865;50.918;7.092;2022-10-16T04:17:18;8.77;;;2.03;;
3698;SDS011;1865;50.918;7.092;2022-10-16T04:19:44;8.67;;;1.80;;
3698;SDS011;1865;50.918;7.092;2022-10-16T04:22:09;6.90;;;1.80;;
3698;SDS011;1865;50.918;7.092;2022-10-16T04:24:36;6.57;;;1.50;;
3698;SDS011;1865;50.918;7.092;2022-10-16T04:27:01;12.10;;;1.93;;
3698;SDS011;1865;50.918;7.092;2022-10-16T04:29:27;7.93;;;1.70;;
3698;SDS011;1865;50.918;7.092;2022-10-16T04:31:53;5.23;;;1.87;;
3698;SDS011;1865;50.918;7.092;2022-10-16T04:34:18;6.13;;;1.30;;
3698;SDS011;1865;50.918;7.092;2022-10-16T04:36:44;7.03;;;1.37;;
3698;SDS011;1865;50.918;7.092;2022-10-16T04:39:12;4.67;;;1.33;;
3698;SDS011;1865;50.918;7.092;2022-10-16T04:41:38;7.10;;;1.67;;
3698;SDS011;1865;50.918;7.092;2022-10-16T04:44:03;4.53;;;1.40;;
3698;SDS011;1865;50.918;7.092;2022-10-16T04:46:29;5.27;;;1.20;;
3698;SDS011;1865;50.918;7.092;2022-10-16T04:48:54;9.00;;;1.70;;
3698;SDS011;1865;50.918;7.092;2022-10-16T04:51:20;5.30;;;1.50;;
3698;SDS011;1865;50.918;7.092;2022-10-16T04:53:45;8.13;;;1.53;;
3698;SDS011;1865;50.918;7.092;2022-10-16T04:56:11;4.93;;;1.33;;
3698;SDS011;1865;50.918;7.092;2022-10-16T04:58:36;5.60;;;1.20;;
3698;SDS011;1865;50.918;7.092;2022-10-16T05:01:02;4.60;;;1.40;;
3698;SDS011;1865;50.918;7.092;2022-10-16T05:03:27;5.90;;;1.43;;
3698;SDS011;1865;50.918;7.092;2022-10-16T05:05:53;4.00;;;0.83;;
3698;SDS011;1865;50.918;7.092;2022-10-16T05:08:19;6.90;;;1.03;;
3698;SDS011;1865;50.918;7.092;2022-10-16T05:10:44;6.20;;;1.00;;
3698;SDS011;1865;50.918;7.092;2022-10-16T05:13:10;6.20;;;1.33;;
3698;SDS011;1865;50.918;7.092;2022-10-16T05:15:36;7.73;;;1.97;;
3698;SDS011;1865;50.918;7.092;2022-10-16T05:18:01;11.70;;;1.30;;
3698;SDS011;1865;50.918;7.092;2022-10-16T05:20:27;4.30;;;1.27;;
3698;SDS011;1865;50.918;7.092;2022-10-16T05:22:53;7.13;;;1.40;;
3698;SDS011;1865;50.918;7.092;2022-10-16T05:25:18;8.13;;;1.70;;
3698;SDS011;1865;50.918;7.092;2022-10-16T05:27:47;4.57;;;1.53;;
3698;SDS011;1865;50.918;7.092;2022-10-16T05:30:13;4.90;;;1.33;;
3698;SDS011;1865;50.918;7.092;2022-10-16T05:32:38;4.07;;;1.10;;
3698;SDS011;1865;50.918;7.092;2022-10-16T05:35:04;5.83;;;1.20;;
3698;SDS011;1865;50.918;7.092;2022-10-16T05:37:30;6.23;;;1.80;;
3698;SDS011;1865;50.918;7.092;2022-10-16T05:39:55;6.73;;;1.30;;
3698;SDS011;1865;50.918;7.092;2022-10-16T05:42:21;5.60;;;1.40;;
3698;SDS011;1865;50.918;7.092;2022-10-16T05:44:46;4.80;;;1.30;;
3698;SDS011;1865;50.918;7.092;2022-10-16T05:47:12;5.40;;;1.33;;
3698;SDS011;1865;50.918;7.092;2022-10-16T05:49:39;5.80;;;1.50;;
3698;SDS011;1865;50.918;7.092;2022-10-16T05:52:04;6.30;;;1.07;;
3698;SDS011;1865;50.918;7.092;2022-10-16T05:54:30;5.40;;;1.20;;
3698;SDS011;1865;50.918;7.092;2022-10-16T05:56:55;4.47;;;1.23;;
3698;SDS011;1865;50.918;7.092;2022-10-16T05:59:21;5.23;;;1.30;;
3698;SDS011;1865;50.918;7.092;2022-10-16T06:01:46;5.77;;;1.30;;
3698;SDS011;1865;50.918;7.092;2022-10-16T06:04:12;4.70;;;1.40;;
3698;SDS011;1865;50.918;7.092;2022-10-16T06:06:37;4.97;;;1.30;;
3698;SDS011;1865;50.918;7.092;2022-10-16T06:09:03;8.30;;;1.20;;
3698;SDS011;1865;50.918;7.092;2022-10-16T06:11:30;5.70;;;1.40;;
3698;SDS011;1865;50.918;7.092;2022-10-16T06:13:58;8.43;;;1.40;;
3698;SDS011;1865;50.918;7.092;2022-10-16T06:16:27;7.90;;;1.57;;
3698;SDS011;1865;50.918;7.092;2022-10-16T06:18:54;5.97;;;1.20;;
3698;SDS011;1865;50.918;7.092;2022-10-16T06:21:24;5.40;;;1.50;;
3698;SDS011;1865;50.918;7.092;2022-10-16T06:23:51;9.50;;;1.47;;
3698;SDS011;1865;50.918;7.092;2022-10-16T06:26:18;4.47;;;1.37;;
3698;SDS011;1865;50.918;7.092;2022-10-16T06:28:46;10.13;;;1.50;;
3698;SDS011;1865;50.918;7.092;2022-10-16T06:31:12;10.40;;;1.50;;
3698;SDS011;1865;50.918;7.092;2022-10-16T06:33:38;7.00;;;1.60;;
3698;SDS011;1865;50.918;7.092;2022-10-16T06:36:08;8.53;;;1.60;;
3698;SDS011;1865;50.918;7.092;2022-10-16T06:38:35;11.80;;;2.20;;
3698;SDS011;1865;50.918;7.092;2022-10-16T06:41:02;8.50;;;1.70;;
3698;SDS011;1865;50.918;7.092;2022-10-16T06:43:28;6.67;;;1.93;;
3698;SDS011;1865;50.918;7.092;2022-10-16T06:45:58;7.17;;;2.20;;
3698;SDS011;1865;50.918;7.092;2022-10-16T06:48:25;9.63;;;3.50;;
3698;SDS011;1865;50.918;7.092;2022-10-16T06:51:01;8.13;;;2.37;;
3698;SDS011;1865;50.918;7.092;2022-10-16T06:53:37;5.47;;;1.80;;
3698;SDS011;1865;50.918;7.092;2022-10-16T06:59:05;9.70;;;1.70;;
3698;SDS011;1865;50.918;7.092;2022-10-16T07:01:31;10.30;;;1.90;;
3698;SDS011;1865;50.918;7.092;2022-10-16T07:03:57;6.63;;;1.50;;
3698;SDS011;1865;50.918;7.092;2022-10-16T07:06:23;4.53;;;1.57;;
3698;SDS011;1865;50.918;7.092;2022-10-16T07:08:50;7.23;;;1.70;;
3698;SDS011;1865;50.918;7.092;2022-10-16T07:11:20;8.00;;;1.50;;
3698;SDS011;1865;50.918;7.092;2022-10-16T07:13:47;5.00;;;1.90;;
3698;SDS011;1865;50.918;7.092;2022-10-16T07:16:14;10.70;;;1.70;;
3698;SDS011;1865;50.918;7.092;2022-10-16T07:18:42;5.90;;;1.53;;
3698;SDS011;1865;50.918;7.092;2022-10-16T07:21:11;6.20;;;1.60;;
3698;SDS011;1865;50.918;7.092;2022-10-16T07:23:38;5.87;;;2.00;;
3698;SDS011;1865;50.918;7.092;2022-10-16T07:26:05;10.83;;;3.83;;
3698;SDS011;1865;50.918;7.092;2022-10-16T07:28:31;7.33;;;2.63;;
3698;SDS011;1865;50.918;7.092;2022-10-16T07:31:01;8.03;;;2.40;;
3698;SDS011;1865;50.918;7.092;2022-10-16T07:33:29;5.70;;;2.20;;
3698;SDS011;1865;50.918;7.092;2022-10-16T07:35:55;5.73;;;1.77;;
3698;SDS011;1865;50.918;7.092;2022-10-16T07:38:21;4.77;;;1.43;;
3698;SDS011;1865;50.918;7.092;2022-10-16T07:40:47;5.13;;;1.50;;
3698;SDS011;1865;50.918;7.092;2022-10-16T07:43:13;5.80;;;1.73;;
3698;SDS011;1865;50.918;7.092;2022-10-16T07:45:48;4.90;;;1.20;;
3698;SDS011;1865;50.918;7.092;2022-10-16T07:48:15;4.77;;;1.40;;
3698;SDS011;1865;50.918;7.092;2022-10-16T07:50:42;4.93;;;1.40;;
3698;SDS011;1865;50.918;7.092;2022-10-16T07:53:08;5.00;;;1.50;;
3698;SDS011;1865;50.918;7.092;2022-10-16T07:55:34;5.60;;;1.40;;
3698;SDS011;1865;50.918;7.092;2022-10-16T07:58:00;9.80;;;1.70;;
3698;SDS011;1865;50.918;7.092;2022-10-16T08:00:25;8.20;;;1.53;;
3698;SDS011;1865;50.918;7.092;2022-10-16T08:02:51;7.03;;;1.53;;
3698;SDS011;1865;50.918;7.092;2022-10-16T08:05:16;6.37;;;1.47;;
3698;SDS011;1865;50.918;7.092;2022-10-16T08:07:42;5.43;;;1.33;;
3698;SDS011;1865;50.918;7.092;2022-10-16T08:10:14;5.70;;;1.37;;
3698;SDS011;1865;50.918;7.092;2022-10-16T08:12:42;7.83;;;1.37;;
3698;SDS011;1865;50.918;7.092;2022-10-16T08:15:07;6.33;;;1.03;;
3698;SDS011;1865;50.918;7.092;2022-10-16T08:17:33;6.57;;;1.50;;
3698;SDS011;1865;50.918;7.092;2022-10-16T08:19:59;5.10;;;1.40;;
3698;SDS011;1865;50.918;7.092;2022-10-16T08:22:24;12.80;;;1.50;;
3698;SDS011;1865;50.918;7.092;2022-10-16T08:24:50;6.50;;;2.20;;
3698;SDS011;1865;50.918;7.092;2022-10-16T08:27:15;9.30;;;2.00;;
3698;SDS011;1865;50.918;7.092;2022-10-16T08:29:41;10.40;;;1.60;;
3698;SDS011;1865;50.918;7.092;2022-10-16T08:32:06;5.53;;;1.00;;
3698;SDS011;1865;50.918;7.092;2022-10-16T08:34:32;16.13;;;1.30;;
3698;SDS011;1865;50.918;7.092;2022-10-16T08:36:57;5.17;;;1.00;;
3698;SDS011;1865;50.918;7.092;2022-10-16T08:39:23;5.67;;;0.90;;
3698;SDS011;1865;50.918;7.092;2022-10-16T08:44:43;5.70;;;0.80;;
3698;SDS011;1865;50.918;7.092;2022-10-16T08:47:48;5.47;;;0.90;;
3698;SDS011;1865;50.918;7.092;2022-10-16T08:50:23;5.37;;;1.10;;
3698;SDS011;1865;50.918;7.092;2022-10-16T08:52:52;7.90;;;1.17;;
3698;SDS011;1865;50.918;7.092;2022-10-16T08:58:09;14.33;;;1.57;;
3698;SDS011;1865;50.918;7.092;2022-10-16T09:00:38;14.67;;;1.07;;
3698;SDS011;1865;50.918;7.092;2022-10-16T09:03:07;6.80;;;1.20;;
3698;SDS011;1865;50.918;7.092;2022-10-16T09:05:51;5.57;;;0.80;;
3698;SDS011;1865;50.918;7.092;2022-10-16T09:16:30;5.10;;;0.70;;
3698;SDS011;1865;50.918;7.092;2022-10-16T09:21:43;4.97;;;0.87;;
3698;SDS011;1865;50.918;7.092;2022-10-16T09:26:48;6.90;;;0.70;;
3698;SDS011;1865;50.918;7.092;2022-10-16T09:29:15;5.40;;;0.90;;
3698;SDS011;1865;50.918;7.092;2022-10-16T09:31:41;5.07;;;0.63;;
3698;SDS011;1865;50.918;7.092;2022-10-16T09:34:17;6.20;;;0.70;;
3698;SDS011;1865;50.918;7.092;2022-10-16T09:36:55;6.17;;;0.80;;
3698;SDS011;1865;50.918;7.092;2022-10-16T09:39:23;5.60;;;0.70;;
3698;SDS011;1865;50.918;7.092;2022-10-16T09:41:49;6.40;;;0.83;;
3698;SDS011;1865;50.918;7.092;2022-10-16T09:44:25;4.60;;;0.50;;
3698;SDS011;1865;50.918;7.092;2022-10-16T09:47:03;5.30;;;0.60;;
3698;SDS011;1865;50.918;7.092;2022-10-16T09:49:29;6.50;;;0.70;;
3698;SDS011;1865;50.918;7.092;2022-10-16T09:52:05;7.30;;;0.60;;
3698;SDS011;1865;50.918;7.092;2022-10-16T09:54:35;5.30;;;0.50;;
3698;SDS011;1865;50.918;7.092;2022-10-16T09:57:07;5.67;;;0.80;;
3698;SDS011;1865;50.918;7.092;2022-10-16T09:59:45;4.70;;;0.60;;
3698;SDS011;1865;50.918;7.092;2022-10-16T10:02:15;6.03;;;0.70;;
3698;SDS011;1865;50.918;7.092;2022-10-16T10:04:52;6.77;;;0.80;;
3698;SDS011;1865;50.918;7.092;2022-10-16T10:07:26;5.63;;;0.80;;
3698;SDS011;1865;50.918;7.092;2022-10-16T10:10:04;5.50;;;0.77;;
3698;SDS011;1865;50.918;7.092;2022-10-16T10:12:31;4.80;;;0.50;;
3698;SDS011;1865;50.918;7.092;2022-10-16T10:15:12;5.73;;;0.80;;
3698;SDS011;1865;50.918;7.092;2022-10-16T10:17:45;7.60;;;0.70;;
3698;SDS011;1865;50.918;7.092;2022-10-16T10:22:42;14.37;;;0.93;;
3698;SDS011;1865;50.918;7.092;2022-10-16T10:35:22;6.70;;;0.70;;
3698;SDS011;1865;50.918;7.092;2022-10-16T10:40:45;6.90;;;0.60;;
3698;SDS011;1865;50.918;7.092;2022-10-16T10:46:31;6.97;;;0.60;;
3698;SDS011;1865;50.918;7.092;2022-10-16T10:49:09;5.93;;;1.10;;
3698;SDS011;1865;50.918;7.092;2022-10-16T10:54:40;11.63;;;0.63;;
3698;SDS011;1865;50.918;7.092;2022-10-16T11:00:09;7.10;;;0.70;;
3698;SDS011;1865;50.918;7.092;2022-10-16T11:05:46;6.90;;;0.77;;
3698;SDS011;1865;50.918;7.092;2022-10-16T11:08:17;14.93;;;0.70;;
3698;SDS011;1865;50.918;7.092;2022-10-16T11:14:13;6.13;;;0.60;;
3698;SDS011;1865;50.918;7.092;2022-10-16T11:16:32;6.67;;;0.60;;
3698;SDS011;1865;50.918;7.092;2022-10-16T11:19:49;7.00;;;0.70;;
3698;SDS011;1865;50.918;7.092;2022-10-16T11:22:18;6.67;;;0.57;;
3698;SDS011;1865;50.918;7.092;2022-10-16T11:27:41;6.73;;;0.80;;
3698;SDS011;1865;50.918;7.092;2022-10-16T11:30:21;8.37;;;0.60;;
3698;SDS011;1865;50.918;7.092;2022-10-16T11:33:10;6.40;;;0.60;;
3698;SDS011;1865;50.918;7.092;2022-10-16T11:35:49;5.87;;;0.57;;
3698;SDS011;1865;50.918;7.092;2022-10-16T11:41:15;5.80;;;0.40;;
3698;SDS011;1865;50.918;7.092;2022-10-16T11:43:52;6.73;;;0.60;;
3698;SDS011;1865;50.918;7.092;2022-10-16T11:46:33;5.70;;;0.40;;
3698;SDS011;1865;50.918;7.092;2022-10-16T11:49:07;7.00;;;0.60;;
3698;SDS011;1865;50.918;7.092;2022-10-16T11:51:40;8.60;;;0.50;;
3698;SDS011;1865;50.918;7.092;2022-10-16T11:54:16;7.60;;;0.63;;
3698;SDS011;1865;50.918;7.092;2022-10-16T11:56:57;6.90;;;0.50;;
3698;SDS011;1865;50.918;7.092;2022-10-16T11:59:36;8.73;;;0.60;;
3698;SDS011;1865;50.918;7.092;2022-10-16T12:02:17;7.07;;;0.53;;
3698;SDS011;1865;50.918;7.092;2022-10-16T12:04:54;8.60;;;0.60;;
3698;SDS011;1865;50.918;7.092;2022-10-16T12:07:46;7.83;;;0.80;;
3698;SDS011;1865;50.918;7.092;2022-10-16T12:10:22;6.13;;;0.60;;
3698;SDS011;1865;50.918;7.092;2022-10-16T12:12:50;7.67;;;0.80;;
3698;SDS011;1865;50.918;7.092;2022-10-16T12:17:53;7.13;;;0.50;;
3698;SDS011;1865;50.918;7.092;2022-10-16T12:20:20;6.00;;;0.50;;
3698;SDS011;1865;50.918;7.092;2022-10-16T12:22:59;7.30;;;0.60;;
3698;SDS011;1865;50.918;7.092;2022-10-16T12:25:34;5.50;;;0.40;;
3698;SDS011;1865;50.918;7.092;2022-10-16T12:28:01;7.40;;;0.63;;
3698;SDS011;1865;50.918;7.092;2022-10-16T12:30:30;7.30;;;0.90;;
3698;SDS011;1865;50.918;7.092;2022-10-16T12:32:58;5.90;;;0.50;;
3698;SDS011;1865;50.918;7.092;2022-10-16T12:35:28;6.00;;;0.60;;
3698;SDS011;1865;50.918;7.092;2022-10-16T12:41:03;5.93;;;0.67;;
3698;SDS011;1865;50.918;7.092;2022-10-16T12:48:43;7.20;;;0.70;;
3698;SDS011;1865;50.918;7.092;2022-10-16T12:51:11;6.53;;;0.50;;
3698;SDS011;1865;50.918;7.092;2022-10-16T12:56:48;6.43;;;0.60;;
3698;SDS011;1865;50.918;7.092;2022-10-16T12:59:33;9.17;;;0.90;;
3698;SDS011;1865;50.918;7.092;2022-10-16T13:02:26;7.80;;;0.73;;
3698;SDS011;1865;50.918;7.092;2022-10-16T13:05:08;6.70;;;0.70;;
3698;SDS011;1865;50.918;7.092;2022-10-16T13:10:28;6.20;;;0.60;;
3698;SDS011;1865;50.918;7.092;2022-10-16T13:21:33;5.80;;;0.60;;
3698;SDS011;1865;50.918;7.092;2022-10-16T13:24:23;10.30;;;0.73;;
3698;SDS011;1865;50.918;7.092;2022-10-16T13:29:46;6.70;;;0.70;;
3698;SDS011;1865;50.918;7.092;2022-10-16T13:32:20;7.63;;;0.50;;
3698;SDS011;1865;50.918;7.092;2022-10-16T13:34:47;9.60;;;0.60;;
3698;SDS011;1865;50.918;7.092;2022-10-16T13:37:20;8.63;;;0.83;;
3698;SDS011;1865;50.918;7.092;2022-10-16T13:39:47;6.20;;;0.70;;
3698;SDS011;1865;50.918;7.092;2022-10-16T13:42:28;6.03;;;0.50;;
3698;SDS011;1865;50.918;7.092;2022-10-16T13:44:55;8.20;;;0.50;;
3698;SDS011;1865;50.918;7.092;2022-10-16T13:47:25;5.73;;;0.60;;
3698;SDS011;1865;50.918;7.092;2022-10-16T13:50:03;7.80;;;0.80;;
3698;SDS011;1865;50.918;7.092;2022-10-16T13:52:36;6.13;;;0.60;;
3698;SDS011;1865;50.918;7.092;2022-10-16T13:55:03;6.00;;;0.53;;
3698;SDS011;1865;50.918;7.092;2022-10-16T13:57:35;5.53;;;0.43;;
3698;SDS011;1865;50.918;7.092;2022-10-16T14:00:00;6.70;;;1.00;;
3698;SDS011;1865;50.918;7.092;2022-10-16T14:02:30;7.87;;;0.83;;
3698;SDS011;1865;50.918;7.092;2022-10-16T14:05:00;7.50;;;0.90;;
3698;SDS011;1865;50.918;7.092;2022-10-16T14:07:33;5.80;;;0.50;;
3698;SDS011;1865;50.918;7.092;2022-10-16T14:10:01;14.30;;;0.60;;
3698;SDS011;1865;50.918;7.092;2022-10-16T14:12:29;5.80;;;0.70;;
3698;SDS011;1865;50.918;7.092;2022-10-16T14:14:55;6.30;;;0.70;;
3698;SDS011;1865;50.918;7.092;2022-10-16T14:17:27;8.70;;;0.70;;
3698;SDS011;1865;50.918;7.092;2022-10-16T14:19:55;6.77;;;0.70;;
3698;SDS011;1865;50.918;7.092;2022-10-16T14:22:28;5.73;;;0.60;;
3698;SDS011;1865;50.918;7.092;2022-10-16T14:25:19;7.10;;;0.53;;
3698;SDS011;1865;50.918;7.092;2022-10-16T14:33:33;6.30;;;0.80;;
3698;SDS011;1865;50.918;7.092;2022-10-16T14:38:24;6.87;;;1.00;;
3698;SDS011;1865;50.918;7.092;2022-10-16T14:40:50;8.20;;;1.40;;
3698;SDS011;1865;50.918;7.092;2022-10-16T14:43:37;7.00;;;1.00;;
3698;SDS011;1865;50.918;7.092;2022-10-16T14:46:06;6.60;;;0.70;;
3698;SDS011;1865;50.918;7.092;2022-10-16T14:48:40;7.57;;;0.80;;
3698;SDS011;1865;50.918;7.092;2022-10-16T14:51:08;6.40;;;0.67;;
3698;SDS011;1865;50.918;7.092;2022-10-16T14:53:38;7.07;;;0.77;;
3698;SDS011;1865;50.918;7.092;2022-10-16T14:56:07;7.17;;;0.77;;
3698;SDS011;1865;50.918;7.092;2022-10-16T14:58:47;6.30;;;0.60;;
3698;SDS011;1865;50.918;7.092;2022-10-16T15:01:14;6.80;;;0.77;;
3698;SDS011;1865;50.918;7.092;2022-10-16T15:03:40;6.53;;;0.70;;
3698;SDS011;1865;50.918;7.092;2022-10-16T15:06:09;5.73;;;0.70;;
3698;SDS011;1865;50.918;7.092;2022-10-16T15:08:36;5.90;;;0.67;;
3698;SDS011;1865;50.918;7.092;2022-10-16T15:11:02;6.63;;;0.60;;
3698;SDS011;1865;50.918;7.092;2022-10-16T15:13:28;5.97;;;0.80;;
3698;SDS011;1865;50.918;7.092;2022-10-16T15:15:53;9.50;;;0.70;;
3698;SDS011;1865;50.918;7.092;2022-10-16T15:18:19;5.60;;;0.60;;
3698;SDS011;1865;50.918;7.092;2022-10-16T15:20:47;6.30;;;0.60;;
3698;SDS011;1865;50.918;7.092;2022-10-16T15:23:14;8.40;;;0.80;;
3698;SDS011;1865;50.918;7.092;2022-10-16T15:28:12;6.23;;;0.67;;
3698;SDS011;1865;50.918;7.092;2022-10-16T15:30:39;6.23;;;0.70;;
3698;SDS011;1865;50.918;7.092;2022-10-16T15:33:08;8.53;;;0.70;;
3698;SDS011;1865;50.918;7.092;2022-10-16T15:35:40;11.53;;;0.80;;
3698;SDS011;1865;50.918;7.092;2022-10-16T15:38:06;5.80;;;0.67;;
3698;SDS011;1865;50.918;7.092;2022-10-16T15:40:37;6.47;;;0.63;;
3698;SDS011;1865;50.918;7.092;2022-10-16T15:43:02;9.30;;;0.70;;
3698;SDS011;1865;50.918;7.092;2022-10-16T15:45:28;5.83;;;0.93;;
3698;SDS011;1865;50.918;7.092;2022-10-16T15:47:53;21.97;;;1.60;;
3698;SDS011;1865;50.918;7.092;2022-10-16T15:50:19;6.90;;;0.80;;
3698;SDS011;1865;50.918;7.092;2022-10-16T15:52:44;10.40;;;0.90;;
3698;SDS011;1865;50.918;7.092;2022-10-16T15:55:10;6.70;;;0.70;;
3698;SDS011;1865;50.918;7.092;2022-10-16T15:57:38;6.37;;;1.00;;
3698;SDS011;1865;50.918;7.092;2022-10-16T16:00:09;8.07;;;1.20;;
3698;SDS011;1865;50.918;7.092;2022-10-16T16:02:37;13.27;;;1.60;;
3698;SDS011;1865;50.918;7.092;2022-10-16T16:05:04;8.10;;;1.00;;
3698;SDS011;1865;50.918;7.092;2022-10-16T16:07:34;6.00;;;1.10;;
3698;SDS011;1865;50.918;7.092;2022-10-16T16:10:00;8.03;;;1.30;;
3698;SDS011;1865;50.918;7.092;2022-10-16T16:12:27;11.67;;;1.40;;
3698;SDS011;1865;50.918;7.092;2022-10-16T16:14:52;6.73;;;1.10;;
3698;SDS011;1865;50.918;7.092;2022-10-16T16:17:18;6.00;;;0.90;;
3698;SDS011;1865;50.918;7.092;2022-10-16T16:19:45;10.57;;;1.43;;
3698;SDS011;1865;50.918;7.092;2022-10-16T16:22:10;5.80;;;0.70;;
3698;SDS011;1865;50.918;7.092;2022-10-16T16:24:36;5.70;;;1.00;;
3698;SDS011;1865;50.918;7.092;2022-10-16T16:27:01;7.83;;;0.90;;
3698;SDS011;1865;50.918;7.092;2022-10-16T16:29:27;8.10;;;0.90;;
3698;SDS011;1865;50.918;7.092;2022-10-16T16:31:52;7.73;;;0.70;;
3698;SDS011;1865;50.918;7.092;2022-10-16T16:34:22;10.33;;;1.30;;
3698;SDS011;1865;50.918;7.092;2022-10-16T16:36:49;7.50;;;0.83;;
3698;SDS011;1865;50.918;7.092;2022-10-16T16:39:15;7.40;;;0.93;;
3698;SDS011;1865;50.918;7.092;2022-10-16T16:41:41;10.73;;;0.73;;
3698;SDS011;1865;50.918;7.092;2022-10-16T16:44:07;5.63;;;0.80;;
3698;SDS011;1865;50.918;7.092;2022-10-16T16:46:35;5.27;;;0.83;;
3698;SDS011;1865;50.918;7.092;2022-10-16T16:49:02;9.40;;;0.90;;
3698;SDS011;1865;50.918;7.092;2022-10-16T16:51:28;6.17;;;0.80;;
3698;SDS011;1865;50.918;7.092;2022-10-16T16:53:54;7.60;;;0.73;;
3698;SDS011;1865;50.918;7.092;2022-10-16T16:56:21;7.50;;;0.80;;
3698;SDS011;1865;50.918;7.092;2022-10-16T16:58:48;8.07;;;1.50;;
3698;SDS011;1865;50.918;7.092;2022-10-16T17:01:15;12.17;;;1.17;;
3698;SDS011;1865;50.918;7.092;2022-10-16T17:03:41;6.63;;;0.60;;
3698;SDS011;1865;50.918;7.092;2022-10-16T17:06:12;9.53;;;0.80;;
3698;SDS011;1865;50.918;7.092;2022-10-16T17:08:39;5.20;;;0.80;;
3698;SDS011;1865;50.918;7.092;2022-10-16T17:11:05;5.50;;;0.80;;
3698;SDS011;1865;50.918;7.092;2022-10-16T17:13:36;6.00;;;0.90;;
3698;SDS011;1865;50.918;7.092;2022-10-16T17:16:03;5.30;;;0.77;;
3698;SDS011;1865;50.918;7.092;2022-10-16T17:18:29;5.23;;;0.83;;
3698;SDS011;1865;50.918;7.092;2022-10-16T17:20:58;5.70;;;0.80;;